Time;durP1;ratioP1;P1;durP2;ratioP2;P2;SDS_P1;SDS_P2;PMS_P1;PMS_P2;Temp;Humidity;BMP_temperature;BMP_pressure;BME280_temperature;BME280_humidity;BME280_pressure;Samples;Min_cycle;Max_cycle;Signal;HPM_P1;HPM_P2
2023/07/04 00:04:19;;;;;;;2.63;2.30;;;;;;;19.49;71.78;98933.53;7144518;40;20824;31
2023/07/04 00:09:56;;;;;;;3.60;2.45;;;;;;;19.48;70.78;98932.72;7127617;40;20240;31
2023/07/04 00:15:17;;;;;;;5.43;2.40;;;;;;;19.36;70.88;98935.34;7150274;40;20345;31
2023/07/04 00:20:38;;;;;;;7.72;2.33;;;;;;;19.19;71.23;98934.28;7190019;40;20333;31
2023/07/04 00:26:14;;;;;;;3.03;2.43;;;;;;;19.07;71.25;98941.59;7203873;40;20802;31
2023/07/04 00:31:49;;;;;;;3.90;2.50;;;;;;;19.09;71.57;98941.34;7256053;40;20265;31
2023/07/04 00:37:09;;;;;;;3.50;2.70;;;;;;;19.11;70.96;98953.72;7240622;40;20868;31
2023/07/04 00:42:45;;;;;;;3.20;2.20;;;;;;;19.00;71.61;98948.19;7198699;40;21347;31
2023/07/04 00:48:16;;;;;;;3.93;2.40;;;;;;;18.87;72.65;98954.59;7152610;40;20922;31
2023/07/04 00:53:53;;;;;;;3.63;2.57;;;;;;;18.90;72.18;98960.47;7154475;40;20436;31
2023/07/04 00:59:27;;;;;;;3.90;2.60;;;;;;;18.90;71.52;98960.47;7237432;40;20749;31
2023/07/04 01:05:03;;;;;;;5.50;2.90;;;;;;;18.88;71.71;98959.84;7266986;39;21012;31
2023/07/04 01:10:37;;;;;;;3.77;2.67;;;;;;;18.76;71.57;98958.09;7179354;40;20263;31
2023/07/04 01:16:13;;;;;;;4.20;2.60;;;;;;;18.65;71.69;98964.31;7186077;40;20397;31
2023/07/04 01:21:48;;;;;;;4.33;2.57;;;;;;;18.62;71.53;98960.12;7183210;40;20340;31
2023/07/04 01:32:27;;;;;;;4.35;2.40;;;;;;;18.64;71.73;98971.66;7230712;40;20265;31
2023/07/04 01:43:07;;;;;;;3.60;2.50;;;;;;;18.45;71.18;98978.09;7310558;39;20352;31
2023/07/04 01:48:43;;;;;;;5.20;2.50;;;;;;;18.28;72.02;98976.97;7236848;40;20262;31
2023/07/04 01:54:21;;;;;;;3.70;2.60;;;;;;;18.13;71.92;98977.25;7157077;40;20322;31
2023/07/04 01:59:41;;;;;;;3.93;2.60;;;;;;;18.09;72.03;98981.50;7216777;40;20834;31
2023/07/04 02:05:19;;;;;;;2.97;2.43;;;;;;;18.09;72.15;98981.50;7238198;40;20811;31
2023/07/04 02:15:51;;;;;;;5.30;2.50;;;;;;;18.01;70.99;98968.12;7232705;40;20405;31
2023/07/04 02:26:29;;;;;;;4.28;2.42;;;;;;;17.86;71.05;98981.22;7303275;39;20254;31
2023/07/04 02:32:01;;;;;;;4.90;2.60;;;;;;;17.75;70.92;98980.03;7278534;40;20712;31
2023/07/04 02:37:36;;;;;;;3.40;2.40;;;;;;;17.55;70.81;98976.53;7216621;40;20713;31
2023/07/04 02:43:28;;;;;;;4.33;2.70;;;;;;;17.16;71.47;98977.50;7138142;40;20506;31
2023/07/04 02:53:52;;;;;;;3.97;2.10;;;;;;;17.14;72.22;98982.34;7157209;40;20389;31
2023/07/04 03:04:36;;;;;;;2.77;2.50;;;;;;;17.18;71.34;98980.88;7267770;39;20270;31
2023/07/04 03:14:58;;;;;;;3.60;2.60;;;;;;;17.20;72.36;98983.38;7282103;39;20311;31
2023/07/04 03:25:38;;;;;;;8.90;3.00;;;;;;;17.47;73.90;98984.94;7298166;39;20363;31
2023/07/04 03:36:02;;;;;;;5.55;2.80;;;;;;;17.72;73.58;98991.38;7240619;40;20272;31
2023/07/04 03:46:42;;;;;;;5.20;2.70;;;;;;;17.82;73.19;98988.16;7240508;40;20470;31
2023/07/04 03:52:17;;;;;;;5.20;2.80;;;;;;;17.89;73.57;99002.59;7177594;40;20733;31
2023/07/04 04:02:55;;;;;;;4.30;2.60;;;;;;;18.01;72.67;99011.75;7157242;40;20262;31
2023/07/04 04:08:16;;;;;;;6.40;2.80;;;;;;;18.09;72.11;99027.03;7162731;40;20958;31
2023/07/04 04:13:36;;;;;;;5.22;2.60;;;;;;;18.07;72.48;99018.25;7221315;39;20711;31
2023/07/04 04:19:13;;;;;;;5.17;2.90;;;;;;;18.00;72.91;99021.84;7275758;40;20696;31
2023/07/04 04:24:36;;;;;;;5.45;2.62;;;;;;;18.02;73.14;99030.66;7209949;40;20804;31
2023/07/04 04:35:14;;;;;;;4.20;2.50;;;;;;;18.09;73.18;99027.88;7255368;39;20272;31
2023/07/04 04:45:50;;;;;;;7.77;2.90;;;;;;;18.28;72.31;99034.25;7308189;39;20402;31
2023/07/04 04:51:24;;;;;;;6.20;3.07;;;;;;;18.26;72.54;99039.94;7038336;40;21300;31
2023/07/04 04:56:45;;;;;;;4.33;2.90;;;;;;;18.28;72.24;99042.44;7221283;40;20775;31
2023/07/04 05:02:21;;;;;;;5.90;3.30;;;;;;;18.26;72.29;99036.38;7236527;40;20760;31
2023/07/04 05:07:58;;;;;;;5.80;2.90;;;;;;;18.41;71.54;99042.34;7252363;40;20896;31
2023/07/04 05:13:21;;;;;;;7.80;3.20;;;;;;;18.53;71.23;99045.22;7247666;40;20720;31
2023/07/04 05:18:56;;;;;;;7.35;2.95;;;;;;;18.56;69.88;99048.34;7237065;40;20778;31
2023/07/04 05:24:33;;;;;;;8.37;3.43;;;;;;;18.63;70.14;99049.16;7191654;40;20854;31
2023/07/04 05:34:58;;;;;;;6.90;3.80;;;;;;;18.83;69.18;99057.16;7182367;40;20392;31
2023/07/04 05:40:35;;;;;;;7.17;3.43;;;;;;;18.95;69.31;99051.84;7245913;39;20276;31
2023/07/04 05:46:07;;;;;;;8.63;3.80;;;;;;;19.01;68.06;99050.94;7210428;40;20272;31
2023/07/04 05:51:41;;;;;;;7.57;3.73;;;;;;;19.11;67.04;99049.38;7197731;40;20280;31
2023/07/04 05:57:16;;;;;;;6.30;3.70;;;;;;;19.25;66.53;99058.28;7198468;40;20274;31
2023/07/04 06:02:36;;;;;;;10.60;3.80;;;;;;;19.29;66.40;99062.22;7218766;40;20264;31
2023/07/04 06:08:11;;;;;;;19.80;5.80;;;;;;;19.49;66.70;99059.28;7244409;40;20474;31
2023/07/04 06:13:47;;;;;;;12.90;4.10;;;;;;;19.61;65.28;99068.44;7171588;40;20831;31
2023/07/04 06:19:24;;;;;;;7.40;3.60;;;;;;;19.86;65.15;99082.00;7166922;40;20399;31
2023/07/04 06:24:59;;;;;;;7.80;3.60;;;;;;;19.95;63.53;99086.13;7157657;40;20856;31
2023/07/04 06:30:35;;;;;;;8.20;3.70;;;;;;;20.04;63.98;99088.31;7257518;40;20867;31
2023/07/04 06:35:55;;;;;;;7.10;3.60;;;;;;;20.20;63.96;99073.97;7234428;40;20304;31
2023/07/04 06:41:30;;;;;;;8.50;3.63;;;;;;;20.38;63.22;99078.59;7282879;40;20797;31
2023/07/04 06:47:06;;;;;;;9.73;3.67;;;;;;;20.43;61.34;99080.66;7217027;40;20803;31
2023/07/04 07:03:57;;;;;;;7.70;3.30;;;;;;;20.51;59.03;99088.53;7043322;41;21487;31
2023/07/04 07:09:15;;;;;;;9.10;3.60;;;;;;;20.71;60.39;99100.03;7205607;40;20934;31
2023/07/04 07:14:51;;;;;;;7.10;3.20;;;;;;;20.95;58.79;99088.03;7258233;40;21408;31
2023/07/04 07:20:28;;;;;;;8.70;3.50;;;;;;;21.17;57.25;99102.03;7216409;40;20729;31
2023/07/04 07:26:06;;;;;;;10.03;3.30;;;;;;;21.24;57.47;99110.16;7216099;40;20262;31
2023/07/04 07:31:41;;;;;;;9.32;3.10;;;;;;;21.49;58.20;99110.75;7233121;40;20316;31
2023/07/04 07:37:13;;;;;;;5.80;3.22;;;;;;;21.59;56.25;99097.25;7186626;40;20388;31
2023/07/04 07:42:48;;;;;;;6.20;3.45;;;;;;;21.79;55.45;99102.37;7256382;40;20874;31
2023/07/04 07:48:21;;;;;;;9.05;3.37;;;;;;;21.77;55.32;99110.81;7220608;40;20814;31
2023/07/04 07:53:59;;;;;;;7.43;3.57;;;;;;;21.61;55.55;99116.22;7176504;40;20872;31
2023/07/04 07:59:35;;;;;;;10.35;3.40;;;;;;;21.57;54.73;99119.44;7143209;40;20820;31
2023/07/04 08:04:55;;;;;;;10.30;3.53;;;;;;;21.73;54.39;99100.56;7149678;40;20712;31
2023/07/04 08:10:27;;;;;;;10.40;4.22;;;;;;;21.84;53.05;99099.72;7215762;40;20276;31
2023/07/04 08:16:02;;;;;;;6.20;3.80;;;;;;;21.83;51.77;99106.28;7286117;39;20799;31
2023/07/04 08:21:37;;;;;;;6.10;3.50;;;;;;;22.13;51.11;99095.97;7256253;40;20713;31
2023/07/04 08:27:12;;;;;;;7.70;3.75;;;;;;;22.23;50.85;99087.97;7210013;40;20793;31
2023/07/04 08:32:33;;;;;;;5.18;3.42;;;;;;;22.47;49.93;99096.91;7168751;40;20710;31
2023/07/04 08:37:52;;;;;;;7.60;3.50;;;;;;;22.51;49.91;99094.53;7204420;40;20796;31
2023/07/04 08:43:29;;;;;;;4.55;3.40;;;;;;;22.74;49.22;99091.69;7237905;39;20879;31
2023/07/04 08:49:04;;;;;;;7.57;3.83;;;;;;;23.06;48.70;99098.28;7306359;39;20350;31
2023/07/04 08:54:35;;;;;;;7.80;3.78;;;;;;;22.92;47.94;99097.78;7245858;40;20342;31
2023/07/04 09:00:13;;;;;;;9.05;3.80;;;;;;;22.74;47.49;99092.50;7291158;39;20805;31
2023/07/04 09:05:52;;;;;;;7.65;3.95;;;;;;;22.79;48.02;99095.34;7260317;40;20360;31
2023/07/04 09:11:28;;;;;;;6.40;3.42;;;;;;;22.99;47.86;99100.38;7197208;40;20253;31
2023/07/04 09:17:06;;;;;;;10.30;4.20;;;;;;;22.97;46.86;99101.69;7192815;40;20257;31
2023/07/04 09:22:28;;;;;;;9.70;4.10;;;;;;;23.04;46.63;99102.34;7173581;40;20257;31
2023/07/04 09:27:48;;;;;;;7.90;3.85;;;;;;;23.21;47.27;99095.78;7252337;40;20319;31
2023/07/04 09:38:27;;;;;;;6.00;3.90;;;;;;;23.34;47.09;99109.19;7305572;39;20396;31
2023/07/04 09:44:03;;;;;;;6.43;4.40;;;;;;;23.65;46.29;99106.94;7275814;40;20248;31
2023/07/04 09:49:38;;;;;;;7.50;3.95;;;;;;;23.67;44.61;99107.50;7260307;40;20439;31
2023/07/04 09:55:22;;;;;;;7.72;4.10;;;;;;;23.67;44.94;99102.84;7240513;40;21361;31
2023/07/04 10:01:01;;;;;;;6.38;3.76;;;;;;;24.02;43.84;99094.22;7276976;39;20350;31
2023/07/04 10:06:44;;;;;;;6.83;4.27;;;;;;;24.13;43.06;99087.75;7257835;40;20272;31
2023/07/04 10:12:24;;;;;;;7.95;4.43;;;;;;;23.97;42.88;99091.41;7312499;39;20267;31
2023/07/04 10:17:59;;;;;;;7.98;4.48;;;;;;;24.08;44.23;99089.62;7287568;40;20240;31
2023/07/04 10:23:34;;;;;;;7.62;4.38;;;;;;;24.31;42.71;99094.06;7225531;40;20242;31
2023/07/04 10:29:10;;;;;;;11.80;4.58;;;;;;;24.61;43.63;99084.19;7208649;40;20272;31
2023/07/04 10:34:46;;;;;;;8.73;4.00;;;;;;;24.79;42.59;99082.16;7220120;40;20336;31
2023/07/04 10:40:21;;;;;;;8.73;3.83;;;;;;;25.18;40.28;99083.62;7212600;40;20381;31
2023/07/04 10:45:58;;;;;;;5.25;3.70;;;;;;;25.06;41.74;99082.97;7196024;40;20339;31
2023/07/04 10:51:33;;;;;;;6.60;4.07;;;;;;;25.29;41.61;99067.97;7211756;40;20245;31
2023/07/04 11:02:15;;;;;;;4.95;3.85;;;;;;;25.29;41.16;99054.16;7260986;40;20285;31
2023/07/04 11:07:51;;;;;;;9.80;3.90;;;;;;;25.42;41.80;99059.22;7252703;40;21640;31
2023/07/04 11:13:29;;;;;;;8.30;4.15;;;;;;;25.35;42.45;99056.72;7234647;40;20271;31
2023/07/04 11:19:09;;;;;;;7.15;4.40;;;;;;;25.50;42.00;99050.44;7198576;40;20285;31
2023/07/04 11:24:46;;;;;;;6.65;3.70;;;;;;;26.02;40.20;99045.75;6977266;40;21160;31
2023/07/04 11:30:19;;;;;;;5.30;3.35;;;;;;;26.07;40.17;99044.94;7178727;40;20246;31
2023/07/04 11:35:55;;;;;;;7.55;4.10;;;;;;;25.71;40.49;99045.91;7220584;40;20265;31
2023/07/04 11:41:27;;;;;;;7.00;3.75;;;;;;;25.89;40.37;99026.13;7236564;40;20237;31
2023/07/04 11:47:04;;;;;;;6.47;4.12;;;;;;;25.68;41.15;99029.88;7255690;40;20366;31
2023/07/04 11:58:12;;;;;;;7.47;3.78;;;;;;;25.75;41.79;99020.25;7273382;40;20388;31
2023/07/04 12:04:16;;;;;;;7.55;3.90;;;;;;;25.48;41.57;99030.56;7268320;40;20245;31
2023/07/04 12:09:48;;;;;;;6.35;4.20;;;;;;;25.29;41.12;99037.62;7221502;40;20261;31
2023/07/04 12:15:22;;;;;;;6.47;4.10;;;;;;;25.31;41.66;99032.69;7198597;40;20279;31
2023/07/04 12:20:57;;;;;;;6.75;4.10;;;;;;;25.47;41.61;99023.38;7162937;40;20236;31
2023/07/04 12:26:33;;;;;;;6.78;3.87;;;;;;;26.02;40.82;99009.03;7154517;40;20450;31
2023/07/04 12:32:18;;;;;;;5.60;3.90;;;;;;;26.05;41.03;99002.13;7218001;40;20250;31
2023/07/04 12:37:53;;;;;;;8.37;4.30;;;;;;;25.82;41.37;99003.41;7221071;40;20300;31
2023/07/04 12:43:26;;;;;;;9.00;4.03;;;;;;;25.72;41.40;98995.91;7198940;40;20498;31
2023/07/04 12:49:01;;;;;;;6.70;3.80;;;;;;;25.80;41.21;98992.63;7163042;40;20302;31
2023/07/04 12:54:34;;;;;;;7.73;4.17;;;;;;;25.81;41.01;98979.66;7163043;40;20457;31
2023/07/04 13:00:10;;;;;;;4.50;3.64;;;;;;;26.17;39.93;98967.62;7151432;40;20243;31
2023/07/04 13:05:48;;;;;;;5.70;3.72;;;;;;;26.42;39.91;98970.44;7148459;40;20262;31
2023/07/04 13:11:23;;;;;;;5.85;3.78;;;;;;;26.58;39.43;98974.06;7219661;40;20244;31
2023/07/04 13:16:57;;;;;;;5.87;3.58;;;;;;;26.65;38.43;98958.00;7220256;40;20261;31
2023/07/04 13:22:33;;;;;;;9.30;3.85;;;;;;;26.93;38.09;98953.03;7258654;40;20279;31
2023/07/04 13:33:08;;;;;;;6.65;3.67;;;;;;;27.35;36.33;98936.88;7247058;40;21479;31
2023/07/04 13:38:45;;;;;;;6.18;3.53;;;;;;;27.21;35.55;98944.13;7264186;40;20248;31
2023/07/04 13:44:20;;;;;;;6.12;3.37;;;;;;;27.14;36.21;98938.06;7235428;40;20252;31
2023/07/04 13:49:56;;;;;;;4.57;3.37;;;;;;;27.42;36.21;98936.59;7236458;40;20261;31
2023/07/04 13:55:32;;;;;;;6.97;3.40;;;;;;;27.44;36.71;98932.41;7197282;40;20242;31
2023/07/04 14:01:04;;;;;;;;;;;;;;;;;;;;;
2023/07/04 14:06:30;;;;;;;5.53;3.60;;;;;;;27.17;36.32;98915.34;7185801;40;20445;31
2023/07/04 14:12:06;;;;;;;7.40;3.80;;;;;;;27.11;36.83;98909.03;7260898;40;20245;31
2023/07/04 14:17:26;;;;;;;5.45;3.42;;;;;;;27.17;37.14;98912.56;7294777;39;20746;31
2023/07/04 14:28:07;;;;;;;5.22;3.47;;;;;;;27.09;35.63;98900.16;7303655;39;20422;31
2023/07/04 14:38:50;;;;;;;7.30;3.80;;;;;;;27.44;35.76;98887.28;7294405;39;20287;31
2023/07/04 14:44:26;;;;;;;6.03;3.62;;;;;;;27.17;35.62;98882.13;7260988;40;20313;31
2023/07/04 14:50:01;;;;;;;4.15;3.55;;;;;;;27.42;36.28;98872.91;7223106;40;20339;31
2023/07/04 15:00:43;;;;;;;6.20;3.82;;;;;;;27.15;35.86;98862.22;7215031;40;20276;31
2023/07/04 15:06:18;;;;;;;8.47;4.00;;;;;;;26.89;35.65;98870.63;7258431;40;20647;31
2023/07/04 15:11:53;;;;;;;7.25;3.50;;;;;;;26.75;36.63;98869.50;7266906;39;20858;31
2023/07/04 15:17:28;;;;;;;6.75;3.65;;;;;;;26.72;36.83;98856.22;7239215;40;20271;31
2023/07/04 15:23:04;;;;;;;7.32;3.50;;;;;;;27.02;36.90;98851.75;7226622;40;20276;31
2023/07/04 15:28:42;;;;;;;5.93;3.65;;;;;;;27.26;36.41;98842.53;7215614;40;20254;31
2023/07/04 15:34:15;;;;;;;8.73;3.60;;;;;;;27.51;35.52;98833.31;7221645;40;20731;31
2023/07/04 15:39:50;;;;;;;6.37;3.85;;;;;;;27.65;36.23;98827.94;7144860;40;21382;31
2023/07/04 15:45:25;;;;;;;8.50;3.40;;;;;;;27.88;36.04;98820.84;7153018;40;20710;31
2023/07/04 15:51:02;;;;;;;6.10;3.72;;;;;;;27.86;35.51;98820.34;7169943;40;20730;31
2023/07/04 15:56:35;;;;;;;4.78;3.55;;;;;;;27.89;35.95;98814.22;7263631;40;20272;31
2023/07/04 16:02:10;;;;;;;5.90;3.20;;;;;;;27.65;36.20;98808.53;7241955;40;20698;31
2023/07/04 16:07:46;;;;;;;4.60;3.00;;;;;;;27.42;34.73;98801.75;7251512;40;20726;31
2023/07/04 16:13:22;;;;;;;8.10;3.52;;;;;;;27.30;35.86;98801.25;7240599;40;20417;31
2023/07/04 16:24:02;;;;;;;5.70;3.50;;;;;;;26.94;36.27;98794.25;7220223;40;20268;31
2023/07/04 16:29:22;;;;;;;5.20;3.10;;;;;;;26.82;36.22;98795.34;7256374;40;20285;31
2023/07/04 16:40:04;;;;;;;6.05;3.35;;;;;;;26.55;36.61;98792.09;7259246;40;20400;31
2023/07/04 16:45:39;;;;;;;7.13;3.60;;;;;;;26.14;41.07;98807.06;7253723;40;20642;31
2023/07/04 16:56:20;;;;;;;8.50;2.48;;;;;;;25.42;45.32;98797.84;7317105;39;20264;31
2023/07/04 17:07:00;;;;;;;6.03;2.87;;;;;;;25.11;46.13;98805.22;7291327;39;20282;31
2023/07/04 17:12:44;;;;;;;6.02;2.70;;;;;;;25.12;46.59;98797.78;7255745;40;20547;31
2023/07/04 17:18:19;;;;;;;4.07;2.33;;;;;;;25.02;48.03;98789.44;7254862;40;20780;31
2023/07/04 17:23:55;;;;;;;4.00;2.50;;;;;;;24.99;47.40;98788.06;7198815;40;20759;31
2023/07/04 17:29:28;;;;;;;3.92;2.20;;;;;;;24.80;48.98;98789.59;7156676;40;20270;31
2023/07/04 17:34:49;;;;;;;4.43;2.55;;;;;;;24.75;49.30;98788.78;7134118;40;20270;31
2023/07/04 17:40:11;;;;;;;3.45;2.25;;;;;;;24.79;48.50;98790.72;7179142;40;20340;31
2023/07/04 17:45:49;;;;;;;2.50;2.20;;;;;;;24.68;49.55;98786.25;7233740;39;20797;31
2023/07/04 17:51:23;;;;;;;3.80;2.23;;;;;;;24.65;48.94;98781.28;7250213;40;20801;31
2023/07/04 17:56:58;;;;;;;4.47;2.33;;;;;;;24.62;49.37;98782.63;7280312;40;20904;31
2023/07/04 18:02:35;;;;;;;5.80;2.50;;;;;;;24.59;49.92;98782.34;7242426;40;20269;31
2023/07/04 18:07:54;;;;;;;5.47;2.40;;;;;;;24.58;50.34;98784.25;7177196;40;20490;31
2023/07/04 18:13:12;;;;;;;3.47;2.28;;;;;;;24.35;51.15;98775.59;7051325;40;21685;31
2023/07/04 18:18:49;;;;;;;2.77;2.20;;;;;;;24.29;51.23;98774.72;7263713;40;20271;31
2023/07/04 18:24:10;;;;;;;3.13;2.30;;;;;;;24.37;51.50;98776.16;7286858;40;20267;31
2023/07/04 18:29:45;;;;;;;4.42;2.36;;;;;;;24.19;51.93;98771.91;7261022;40;20784;31
2023/07/04 18:35:22;;;;;;;3.84;2.20;;;;;;;24.03;51.49;98770.94;7218441;40;20261;31
2023/07/04 18:40:55;;;;;;;2.80;2.40;;;;;;;23.92;51.29;98773.84;7168640;40;20389;31
2023/07/04 18:46:30;;;;;;;3.33;2.30;;;;;;;23.82;53.23;98758.13;7135586;40;20939;31
2023/07/04 18:52:07;;;;;;;3.40;2.10;;;;;;;23.69;53.33;98761.31;7178212;40;20567;31
2023/07/04 18:57:27;;;;;;;2.92;2.28;;;;;;;23.77;52.75;98767.16;7174505;40;20584;31
2023/07/04 19:02:48;;;;;;;2.66;2.20;;;;;;;23.70;51.40;98760.19;7203157;40;20861;31
2023/07/04 19:08:24;;;;;;;3.45;2.10;;;;;;;23.61;53.08;98767.25;7204264;40;20257;31
2023/07/04 19:13:59;;;;;;;4.36;2.24;;;;;;;23.50;52.91;98773.78;7238056;40;20246;31
2023/07/04 19:19:35;;;;;;;3.55;2.20;;;;;;;23.45;52.91;98777.31;7224522;40;20261;31
2023/07/04 19:25:12;;;;;;;3.75;2.25;;;;;;;23.38;53.11;98770.31;7228443;40;20332;31
2023/07/04 19:30:35;;;;;;;4.80;2.40;;;;;;;23.19;54.26;98798.19;7199086;40;20790;31
2023/07/04 19:36:07;;;;;;;3.83;2.30;;;;;;;23.09;54.45;98789.81;7253747;40;20709;31
2023/07/04 19:41:43;;;;;;;3.58;2.37;;;;;;;23.04;54.83;98788.91;7237258;40;20794;31
2023/07/04 19:47:03;;;;;;;7.17;2.70;;;;;;;23.13;54.86;98801.94;7229663;40;20750;31
2023/07/04 19:52:22;;;;;;;3.90;2.15;;;;;;;22.96;54.47;98801.19;7180333;40;20560;31
2023/07/04 19:57:58;;;;;;;2.60;1.95;;;;;;;22.83;55.87;98802.41;7212649;40;21374;31
2023/07/04 20:03:37;;;;;;;3.05;2.20;;;;;;;22.83;55.46;98790.59;7228972;40;20710;31
2023/07/04 20:08:59;;;;;;;2.87;2.12;;;;;;;22.80;56.35;98791.94;7254897;40;20341;31
2023/07/04 20:14:35;;;;;;;2.95;2.10;;;;;;;22.69;56.36;98779.13;7217855;40;20277;31
2023/07/04 20:19:55;;;;;;;3.15;2.12;;;;;;;22.69;56.30;98778.28;7233975;40;20800;31
2023/07/04 20:25:32;;;;;;;4.68;2.05;;;;;;;22.48;57.74;98797.25;7266911;40;20253;31
2023/07/04 20:31:08;;;;;;;3.70;1.70;;;;;;;22.42;58.17;98783.72;7211982;40;20242;31
2023/07/04 20:36:46;;;;;;;2.17;1.73;;;;;;;22.42;58.45;98786.44;7222923;40;20642;31
2023/07/04 20:42:22;;;;;;;2.60;2.00;;;;;;;22.43;58.38;98783.44;7173864;40;20626;31
2023/07/04 20:47:58;;;;;;;2.10;1.70;;;;;;;22.31;58.93;98771.72;7198748;40;20695;31
2023/07/04 20:53:33;;;;;;;4.02;2.20;;;;;;;22.33;58.36;98766.84;7135722;40;20805;31
2023/07/04 20:59:08;;;;;;;3.65;2.00;;;;;;;22.29;58.54;98756.59;7162660;40;20748;31
2023/07/04 21:04:43;;;;;;;3.95;2.05;;;;;;;22.31;58.57;98752.50;7127386;40;20318;31
2023/07/04 21:10:04;;;;;;;4.05;2.30;;;;;;;22.29;58.37;98771.12;7177800;40;20787;31
2023/07/04 21:15:39;;;;;;;3.50;1.95;;;;;;;22.18;59.59;98752.88;7204395;40;20417;31
2023/07/04 21:21:17;;;;;;;3.85;2.10;;;;;;;22.05;60.33;98755.12;7203020;40;20262;31
2023/07/04 21:26:54;;;;;;;4.17;1.93;;;;;;;21.93;60.59;98755.22;7178216;40;20251;31
2023/07/04 21:32:14;;;;;;;2.90;1.90;;;;;;;21.84;60.17;98748.47;7182590;40;20445;31
2023/07/04 21:37:51;;;;;;;2.20;1.90;;;;;;;21.79;61.20;98743.72;7239088;40;20330;31
2023/07/04 21:43:27;;;;;;;2.83;2.10;;;;;;;21.80;60.92;98733.59;7218392;40;20728;31
2023/07/04 21:48:47;;;;;;;2.83;2.10;;;;;;;21.77;59.63;98736.81;7250219;40;20363;31
2023/07/04 21:54:23;;;;;;;4.10;2.20;;;;;;;21.54;59.65;98732.34;7234717;40;20770;31
2023/07/04 21:59:58;;;;;;;3.30;2.03;;;;;;;21.17;60.96;98731.97;7217387;40;22019;31
2023/07/04 22:05:33;;;;;;;4.00;2.10;;;;;;;20.94;61.29;98721.06;7256916;40;21097;31
2023/07/04 22:11:12;;;;;;;2.64;2.16;;;;;;;20.77;61.73;98715.53;7241356;40;20810;31
2023/07/04 22:16:34;;;;;;;5.25;2.30;;;;;;;20.59;62.67;98716.56;7163730;40;20815;31
2023/07/04 22:22:10;;;;;;;2.72;2.03;;;;;;;20.55;63.19;98704.41;7258220;40;20260;31
2023/07/04 22:27:50;;;;;;;3.50;2.10;;;;;;;20.32;61.94;98701.72;7234557;40;20296;31
2023/07/04 22:38:29;;;;;;;2.97;1.87;;;;;;;20.20;62.86;98700.91;7237258;40;20283;31
2023/07/04 22:44:05;;;;;;;2.60;1.83;;;;;;;20.33;63.37;98683.41;7240239;40;20801;31
2023/07/04 22:49:24;;;;;;;3.30;2.10;;;;;;;20.29;62.51;98685.78;7265640;40;20365;31
2023/07/04 22:54:44;;;;;;;2.33;2.00;;;;;;;20.47;62.20;98663.72;7279223;40;20245;31
2023/07/04 23:00:22;;;;;;;3.50;2.00;;;;;;;20.51;63.16;98655.84;7324490;39;20796;31
2023/07/04 23:05:57;;;;;;;2.30;1.85;;;;;;;20.62;62.75;98655.81;7281680;39;20560;31
2023/07/04 23:11:33;;;;;;;2.53;1.77;;;;;;;20.75;62.30;98659.34;7259214;40;20771;31
2023/07/04 23:17:12;;;;;;;2.25;1.60;;;;;;;20.79;62.17;98661.34;7223240;40;20763;31
2023/07/04 23:22:43;;;;;;;1.80;1.52;;;;;;;20.83;62.24;98658.94;7238275;40;20267;31
2023/07/04 23:28:03;;;;;;;3.50;1.90;;;;;;;20.88;61.79;98654.41;7241758;39;20752;31
2023/07/04 23:38:38;;;;;;;1.80;1.55;;;;;;;20.83;61.86;98643.34;7255544;40;20258;31
2023/07/04 23:44:14;;;;;;;2.60;1.60;;;;;;;20.91;62.11;98631.97;7209579;40;20818;31
2023/07/04 23:49:50;;;;;;;2.67;1.87;;;;;;;20.96;62.35;98662.22;7245638;40;20716;31
2023/07/04 23:55:27;;;;;;;1.83;1.50;;;;;;;20.84;63.82;98636.78;7218076;40;20362;31
